Current Conditions

Updated: 30-Oct-2014 8:57pm  
Summary / Temperature Wind Rain






Feels like: 65°F

1-hour difference
2.4°F 2.4°F colder than last hour.

24-hour difference
5.3°F5.3°F warmer than yesterday at this time.

  Today Yesterday
High: 85.4°F
2:30pm
81.9°F
4:10pm
Low: 49.9°F
7:08am
47.5°F
7:13am
 Calm SSW
0.0
Gust:  0.0 mph
0 Beaufort - Calm

Today: 4.0 - 1:42pm
Month: 12.0 mph - Oct 25
Rain Today: 0.00 in
Current Rate (/hr): 0.00 in
Max Rate (/hr):
Rain Yesterday: 0.00 in
Storm Rain: 0.00 in
This Month: 0.00 in
Season Total: 0.01 in
Last Rain Event: 52 days ago
Humidity / Barometer Sun / Moon
Humidity: 53 Increased 2.0% in the last hour.
Dew Point: 47.6°F Decreased 1.3°F in the last hour.
Barometer: 29.886 inHg  
Baro Trend: Rising slowly
Sunrise: 7:18am
Sunset: 6:02pm
Moonrise: 2:09pm
Moonset: 12:23am
Sky Conditions UV Index
Sky: Clear
Visibility: 10 miles
Clouds: None
Current: 0.0  None 
Friday: 4.2  Moderate 
Saturday: 3.6  Moderate 
Air Quality Fire Danger
PM 2.5 Moderate
Ozone Good
Current: 16  Low 

Local Alerts Local Forecast
Local NWS Alerts
Tonight

Partly
Cloudy
Low 51
Fri

Mostly
Cloudy
High 75
Fri night

Rain
Showers
Low 52
Sat

Rain
Showers
High 66
Sat night

Chance of
Precip
Low 46
Sun

Partly
Sunny
High 65
Sun night

Mostly
Clear
Low 45

Local Radar Local Satellite Neighborhood Cam Sky Cam
Local Radar Local Satellite Neighborhood Cam Sky Cam


Nearby METAR Reports

KPTV - Porterville, California, USA
Distance from station: SSW 4mi, 7km
Updated: Thu, 30-Oct-2014 8:35pm PDT
Clear
Clear
 Wind from SE
Wind: SE 8 mph , 13 km/h
Temperature: 63°F , 17°C
Dew Point: 43°F , 6°C
Humidity: 49%
Barometer: 29.92 inHg , 1013.2 hPa
Clouds: Clear
Visibility: 10 miles , 16 km
2014/10/31 03:35 KPTV 310335Z AUTO 14007KT 10SM CLR 17/06 A2992 RMK AO1
KVIS - Visalia, California, USA
Distance from station: NW 27mi, 43km
Updated: Thu, 30-Oct-2014 8:35pm PDT

 Wind from calm
Wind: Calm
Temperature: 66°F , 19°C
Dew Point: 43°F , 6°C
Humidity: 43%
Barometer: 29.89 inHg , 1012.2 hPa
Visibility: 10 miles , 16 km
2014/10/31 03:35 KVIS 310335Z 00000KT 10SM 19/06 A2989 RMK AO1

Metar display script from Saratoga-Weather.org



Visitor Map

Locations of visitors to this page